FR-0271 weather

Glacier De La Barbaratre Airport
Vaujany, Rhône Alpes, France

Public forecast

Using degrees Celsius for public forecast. Weather courtesy of forecast.io.

METAR (pilot weather report)

Closest report is Chambéry-Savoie Airport, 30.7 nm (56.8 km) NNW. Retrieved 2019/09/21 05:30 UTC (12 minutes ago):

LFLB 210530Z AUTO VRB02KT CAVOK 10/09 Q1020 NOSIG

TAF (pilot weather forecast)

Forecast is more than 12 hours old.

Closest forecast is Chambéry-Savoie Airport, 30.7 nm (56.8 km) NNW. Retrieved 2019/09/20 00:21 UTC (1 day ago):

TAF LFLB 202300Z 2100/2124 VRB03KT CAVOK TEMPO 2100/2104 36010KT